26 septembre 2022

Temps Code Temps Temp. Vue Base cloud Vent METAR/SPECI
3:00 am
V
55 °F 9 mi 6.600 ft 230° 230° 4 kt METAR CYOO 260700Z AUTO 23004KT 9SM BKN066 OVC100 13/12 A2950 RMK SLP993 DENSITY ALT 800FT
2:00 am
V
55 °F 9 mi 8.400 ft 230° 230° 5 kt METAR CYOO 260600Z AUTO 23005KT 9SM SCT066 BKN084 OVC100 13/12 A2950 RMK SLP993 DENSITY ALT 900FT
1:47 am
V
55 °F 9 mi 8.100 ft 230° 230° 5 kt METAR CYOO 260547Z AUTO 23005KT 9SM BKN081 OVC100 13/12 A2950 RMK SLP993 DENSITY ALT 900FT
1:16 am
V
55 °F 9 mi 7.100 ft 220° 220° 4 kt METAR CYOO 260516Z AUTO 22004KT 190V260 9SM -RA OVC071 13/13 A2951 RMK SLP996 DENSITY ALT 900FT
1:00 am
V
55 °F 9 mi 6.600 ft 230° 230° 2 kt METAR CYOO 260500Z AUTO 23002KT 9SM BKN066 OVC087 13/13 A2951 RMK SLP996 DENSITY ALT 900FT
12:00 am
V
57 °F 9 mi 4.800 ft 240° 240° 4 kt METAR CYOO 260400Z AUTO 24004KT 9SM FEW037 BKN048 BKN066 OVC078 14/13 A2952 RMK SLP000 DENSITY ALT 900FT

25 septembre 2022

Temps Code Temps Temp. Vue Base cloud Vent METAR/SPECI
11:00 pm
V
57 °F 9 mi 5.500 ft 230° 230° 3 kt METAR CYOO 260300Z AUTO 23003KT 9SM BKN055 BKN067 OVC086 14/14 A2953 RMK SLP001 DENSITY ALT 1000FT
10:48 pm
V
57 °F 6 mi 5.500 ft 230° 230° 3 kt METAR CYOO 260248Z AUTO 23003KT 6SM BR BKN055 OVC083 14/14 A2953 RMK SLP001 DENSITY ALT 1000FT
10:09 pm
V
57 °F 5 mi 9.100 ft 240° 240° 3 kt METAR CYOO 260209Z AUTO 24003KT 5SM BR SCT033 SCT081 OVC091 14/14 A2952 RMK SLP000 DENSITY ALT 1000FT
10:00 pm
V
57 °F 6 mi 3.500 ft Var Var 2 kt METAR CYOO 260200Z AUTO VRB02KT 6SM BR FEW029 BKN035 BKN076 OVC092 14/14 A2952 RMK SLP000 DENSITY ALT 1000FT
9:42 pm
V
57 °F 6 mi 3.300 ft 240° 240° 3 kt METAR CYOO 260142Z AUTO 24003KT 6SM BR SCT014 BKN033 OVC076 14/14 A2953 RMK SLP003 DENSITY ALT 1000FT
9:36 pm
M
57 °F 6 mi 1.400 ft 240° 240° 2 kt METAR CYOO 260136Z AUTO 24002KT 6SM BR BKN014 BKN035 OVC076 14/14 A2953 RMK SLP003 DENSITY ALT 1000FT
9:21 pm
M
57 °F 4 mi 1.400 ft Var 000° 0 kt METAR CYOO 260121Z AUTO 00000KT 4SM BR FEW007 OVC014 14/14 A2953 RMK SLP004 DENSITY ALT 1000FT
9:00 pm
I
57 °F 3 mi 2.000 ft Var 000° 0 kt METAR CYOO 260100Z AUTO 00000KT 3SM BR SCT007 OVC020 14/14 A2953 RMK SLP004 DENSITY ALT 1000FT
8:44 pm
I
57 °F 3 mi 2.000 ft 120° 120° 2 kt METAR CYOO 260044Z AUTO 12002KT 3SM BR BKN020 BKN025 BKN035 OVC047 14/14 A2953 RMK SLP003 DENSITY ALT 900FT
8:34 pm
V
57 °F 5 mi 3.500 ft 120° 120° 3 kt METAR CYOO 260034Z AUTO 12003KT 050V180 5SM BR SCT022 BKN035 OVC044 14/14 A2953 RMK SLP003 DENSITY ALT 1000FT
8:19 pm
V
57 °F 8 mi 4.300 ft Var Var 2 kt METAR CYOO 260019Z AUTO VRB02KT 8SM BKN043 OVC055 14/14 A2953 RMK SLP003 DENSITY ALT 1000FT
8:13 pm
V
57 °F 6 mi 4.100 ft 160° 160° 3 kt METAR CYOO 260013Z AUTO 16003KT 6SM -RA BR BKN041 OVC055 14/14 A2953 RMK SLP004 DENSITY ALT 1000FT
8:00 pm
I
57 °F 3 mi 4.700 ft 130° 130° 2 kt METAR CYOO 260000Z AUTO 13002KT 3SM -RA BR FEW034 BKN047 BKN055 OVC068 14/14 A2953 RMK PCPN 8.3MM PAST HR SLP004 DENSITY ALT 900FT
7:44 pm
I
57 °F 3 mi 3.300 ft 140° 140° 3 kt METAR CYOO 252344Z AUTO 14003KT 110V190 3SM -RA BR SCT018 BKN033 BKN043 OVC073 14/14 A2953 RMK SLP004 DENSITY ALT 1000FT
7:38 pm
I
57 °F 1¾ mi 3.200 ft Var Var 2 kt METAR CYOO 252338Z AUTO VRB02KT 1 3/4SM RA BR FEW008 SCT020 BKN032 OVC071 14/14 A2954 RMK SLP005 DENSITY ALT 1000FT
7:32 pm
I
57 °F 1½ mi 2.800 ft 170° 170° 3 kt METAR CYOO 252332Z AUTO 17003KT 150V250 1 1/2SM +RA BR SCT016 BKN028 BKN037 OVC049 14/14 A2954 RMK SLP005 DENSITY ALT 900FT
7:11 pm
I
57 °F 1½ mi 2.500 ft 200° 200° 4 kt METAR CYOO 252311Z AUTO 20004KT 170V240 1 1/2SM +RA BR SCT016 BKN025 OVC041 14/14 A2953 RMK SLP004 DENSITY ALT 900FT
7:01 pm
I
57 °F 1¾ mi 1.600 ft 190° 190° 4 kt METAR CYOO 252301Z AUTO 19004KT 1 3/4SM +RA BR BKN016 BKN023 BKN041 OVC060 14/14 A2953 RMK SLP004 DENSITY ALT 1000FT
7:00 pm
I
57 °F 2¼ mi 1.600 ft 190° 190° 4 kt METAR CYOO 252300Z AUTO 19004KT 2 1/4SM +RA BR BKN016 BKN023 BKN041 OVC060 14/13 A2953 RMK SLP004 DENSITY ALT 1000FT
6:59 pm
I
57 °F 3 mi 1.600 ft 190° 190° 3 kt METAR CYOO 252259Z AUTO 19003KT 3SM RA BR BKN016 BKN021 OVC060 14/13 A2953 RMK SLP004 DENSITY ALT 1000FT
6:43 pm
V
59 °F 9 mi 6.000 ft 180° 180° 5 kt METAR CYOO 252243Z AUTO 18005KT 9SM -RA VCTS FEW016 BKN060 BKN096 OVC120 15/13 A2952 RMK LTNG DIST W SLP999 DENSITY ALT 1100FT
6:36 pm
V
59 °F 9 mi 6.600 ft 160° 160° 6 kt METAR CYOO 252236Z AUTO 16006KT 9SM -RA BKN066 BKN096 BKN120 OVC230 15/13 A2952 RMK SLP999 DENSITY ALT 1100FT
6:00 pm
V
61 °F 9 mi 23.000 ft 150° 150° 4 kt METAR CYOO 252200Z AUTO 15004KT 9SM FEW031 BKN230 16/14 A2951 RMK LTNG DIST SW W SLP996 DENSITY ALT 1200FT
5:00 pm
V
63 °F 9 mi 6.600 ft Var 000° 0 kt METAR CYOO 252100Z AUTO 00000KT 9SM FEW014 BKN066 BKN077 17/13 A2950 RMK SLP993 DENSITY ALT 1300FT
4:23 pm
V
63 °F 9 mi 7.100 ft Var Var 2 kt METAR CYOO 252023Z AUTO VRB02KT 9SM SCT012 BKN071 OVC160 17/14 A2950 RMK SLP991 DENSITY ALT 1300FT
4:00 pm
M
61 °F 9 mi 1.000 ft 060° 060° 3 kt METAR CYOO 252000Z AUTO 06003KT 9SM BKN010 BKN016 OVC021 16/14 A2950 RMK SLP994 DENSITY ALT 1200FT
3:00 pm
M
59 °F 9 mi 1.400 ft 090° 090° 5 kt METAR CYOO 251900Z AUTO 09005KT 070V130 9SM SCT009 BKN014 OVC023 15/14 A2951 RMK SLP995 DENSITY ALT 1100FT
2:54 pm
M
61 °F 9 mi 1.400 ft Var Var 5 kt METAR CYOO 251854Z AUTO VRB05KT 9SM SCT009 OVC014 16/14 A2951 RMK SLP994 DENSITY ALT 1200FT
2:36 pm
M
59 °F 9 mi 1.400 ft Var Var 2 kt METAR CYOO 251836Z AUTO VRB02KT 9SM -RA SCT009 BKN014 OVC081 15/14 A2951 RMK SLP996 DENSITY ALT 1100FT
2:07 pm
V
59 °F 9 mi 8.100 ft 110° 110° 5 kt METAR CYOO 251807Z AUTO 11005KT 9SM -RA SCT009 BKN081 OVC092 15/14 A2951 RMK SLP997 DENSITY ALT 1100FT
2:03 pm
I
59 °F 9 mi 900 ft 110° 110° 4 kt METAR CYOO 251803Z AUTO 11004KT 9SM -RA BKN009 BKN081 OVC092 15/14 A2951 RMK SLP997 DENSITY ALT 1100FT
1:00 pm
V
59 °F 9 mi 7.100 ft 080° 080° 5 kt METAR CYOO 251700Z AUTO 08005KT 9SM -RA FEW009 SCT055 BKN071 OVC090 15/14 A2953 RMK SLP002 DENSITY ALT 1100FT
12:00 pm
V
59 °F 9 mi 7.100 ft 090° 090° 6 kt METAR CYOO 251600Z AUTO 09006KT 070V130 9SM -RA SCT009 OVC071 15/13 A2954 RMK SLP005 DENSITY ALT 1000FT
11:00 am
V
57 °F 9 mi 7.100 ft 090° 090° 6 kt METAR CYOO 251500Z AUTO 09006KT 9SM -RA BKN071 OVC088 14/13 A2956 RMK SLP011 DENSITY ALT 900FT
10:00 am
V
55 °F 9 mi 8.600 ft 080° 080° 6 kt METAR CYOO 251400Z AUTO 08006KT 9SM -RA FEW055 OVC086 13/12 A2957 RMK SLP018 DENSITY ALT 800FT
9:00 am
V
55 °F 9 mi 7.600 ft 100° 100° 5 kt METAR CYOO 251300Z AUTO 10005KT 9SM -RA FEW026 OVC076 13/12 A2959 RMK SLP025 DENSITY ALT 700FT
8:00 am
V
55 °F 9 mi 8.600 ft 090° 090° 5 kt METAR CYOO 251200Z AUTO 09005KT 9SM OVC086 13/10 A2962 RMK SLP032 DENSITY ALT 700FT
7:00 am
V
55 °F 9 mi 9.000 ft 090° 090° 9 kt METAR CYOO 251100Z AUTO 09009KT 9SM FEW066 BKN090 BKN120 13/10 A2963 RMK SLP036 DENSITY ALT 700FT
6:00 am
V
55 °F 9 mi 5.500 ft 080° 080° 7 kt METAR CYOO 251000Z AUTO 08007KT 9SM FEW038 BKN055 BKN070 OVC092 13/10 A2965 RMK SLP045 DENSITY ALT 700FT
5:00 am
V
55 °F 9 mi 5.000 ft 090° 090° 6 kt METAR CYOO 250900Z AUTO 09006KT 9SM OVC050 13/10 A2968 RMK SLP054 DENSITY ALT 700FT
4:07 am
V
55 °F 9 mi 5.500 ft 100° 100° 5 kt METAR CYOO 250807Z AUTO 10005KT 9SM FEW044 BKN055 BKN071 OVC084 13/09 A2970 RMK SLP061 DENSITY ALT 600FT
3:51 am
V
55 °F 9 mi 6.000 ft 100° 100° 7 kt METAR CYOO 250751Z AUTO 10007KT 9SM -RA SCT048 BKN060 OVC075 13/09 A2970 RMK SLP061 DENSITY ALT 600FT
3:00 am
V
55 °F 9 mi 5.000 ft 090° 090° 6 kt METAR CYOO 250700Z AUTO 09006KT 9SM OVC050 13/09 A2973 RMK SLP070 DENSITY ALT 600FT
2:00 am
V
55 °F 9 mi 4.500 ft 100° 100° 5 kt METAR CYOO 250600Z AUTO 10005KT 9SM OVC045 13/09 A2976 RMK SLP080 DENSITY ALT 500FT
1:00 am
V
55 °F 9 mi 5.500 ft 100° 100° 4 kt METAR CYOO 250500Z AUTO 10004KT 9SM OVC055 13/09 A2978 RMK SLP088 DENSITY ALT 500FT
12:00 am
V
55 °F 9 mi 6.000 ft Var 000° 0 kt METAR CYOO 250400Z AUTO 00000KT 9SM OVC060 13/10 A2981 RMK SLP097 DENSITY ALT 500FT

24 septembre 2022

Temps Code Temps Temp. Vue Base cloud Vent METAR/SPECI
11:00 pm
V
55 °F 9 mi 7.100 ft 030° 030° 4 kt METAR CYOO 250300Z AUTO 03004KT 9SM OVC071 13/10 A2982 RMK SLP103
10:00 pm
V
55 °F 9 mi 7.600 ft Var 000° 0 kt METAR CYOO 250200Z AUTO 00000KT 9SM OVC076 13/10 A2985 RMK SLP111
9:00 pm
V
57 °F 9 mi 8.100 ft Var 000° 0 kt METAR CYOO 250100Z AUTO 00000KT 9SM OVC081 14/08 A2986 RMK SLP116 DENSITY ALT 500FT
8:00 pm
V
55 °F 9 mi 8.600 ft 070° 070° 2 kt METAR CYOO 250000Z AUTO 07002KT 9SM OVC086 13/10 A2988 RMK SLP121
7:00 pm
V
57 °F 9 mi 9.100 ft 220° 220° 2 kt METAR CYOO 242300Z AUTO 22002KT 9SM OVC091 14/08 A2989 RMK SLP126 DENSITY ALT 600FT
6:46 pm
V
59 °F 9 mi 9.100 ft 210° 210° 2 kt METAR CYOO 242246Z AUTO 21002KT 9SM OVC091 15/09 A2989 RMK SLP125 DENSITY ALT 600FT
6:27 pm
V
59 °F 9 mi 9.400 ft 160° 160° 4 kt METAR CYOO 242227Z AUTO 16004KT 130V220 9SM -RA FEW071 OVC094 15/07 A2989 RMK SLP124 DENSITY ALT 700FT
6:00 pm
V
59 °F 9 mi 11.000 ft 170° 170° 3 kt METAR CYOO 242200Z AUTO 17003KT 140V210 9SM OVC110 15/06 A2989 RMK SLP127 DENSITY ALT 700FT
5:00 pm
V
61 °F 9 mi 12.000 ft 210° 210° 5 kt METAR CYOO 242100Z AUTO 21005KT 9SM BKN120 OVC140 16/06 A2991 RMK SLP134 DENSITY ALT 700FT
4:00 pm
V
63 °F 9 mi 17.000 ft 190° 190° 4 kt METAR CYOO 242000Z AUTO 19004KT 120V210 9SM BKN170 BKN190 17/06 A2993 RMK SLP140 DENSITY ALT 800FT
3:00 pm
V
63 °F 9 mi - 230° 230° 7 kt METAR CYOO 241900Z AUTO 23007KT 160V250 9SM FEW220 17/06 A2995 RMK SLP147 DENSITY ALT 800FT
2:00 pm
V
61 °F 9 mi - 220° 220° 8 kt METAR CYOO 241800Z AUTO 22008KT 160V250 9SM CLR 16/06 A2998 RMK SLP158 DENSITY ALT 700FT
1:00 pm
V
61 °F 9 mi - 170° 170° 10 kt METAR CYOO 241700Z AUTO 17010KT 9SM CLR 16/06 A3002 RMK SLP169 DENSITY ALT 600FT
12:00 pm
V
61 °F 9 mi - 180° 180° 8 kt METAR CYOO 241600Z AUTO 18008KT 150V230 9SM FEW036 16/07 A3003 RMK SLP174 DENSITY ALT 600FT
11:00 am
V
59 °F 9 mi 23.000 ft 200° 200° 4 kt METAR CYOO 241500Z AUTO 20004KT 160V330 9SM SCT210 BKN230 15/07 A3005 RMK SLP180 DENSITY ALT 500FT
10:00 am
V
57 °F 9 mi - 270° 270° 4 kt METAR CYOO 241400Z AUTO 27004KT 210V290 9SM FEW230 14/07 A3007 RMK SLP186
9:00 am
V
52 °F 9 mi - Var 000° 0 kt METAR CYOO 241300Z AUTO 00000KT 9SM FEW210 11/08 A3008 RMK SLP189
8:00 am
V
45 °F 9 mi - 010° 010° 2 kt METAR CYOO 241200Z AUTO 01002KT 9SM CLR 07/06 A3008 RMK SLP191
7:00 am
V
41 °F 9 mi - Var Var 2 kt METAR CYOO 241100Z AUTO VRB02KT 9SM CLR 05/04 A3008 RMK SLP192
6:00 am
V
43 °F 9 mi 23.000 ft 350° 350° 2 kt METAR CYOO 241000Z AUTO 35002KT 9SM OVC230 06/05 A3009 RMK SLP193
5:00 am
V
43 °F 9 mi - Var 000° 0 kt METAR CYOO 240900Z AUTO 00000KT 9SM SCT250 06/04 A3009 RMK SLP194
Données plus anciennes

Nous et des tiers suivons ton comportement sur Internet sur notre site Web à l'aide de cookies. Si tu continues, nous supposons que tu acceptes notre politique en matière de cookies. Apprendre plus